Rison, Maryland
Current Conditions -  °F | °C
As of 9:56 PM on Thursday 27 Nov 2014 (Local Time) from KNYG Reporting Station
Clear Clear  
Wind Chill: 26°   Ceiling: Unl
Heat Index: 33°   Visibility: 10mi
Dew Point: 29°   Wind: 8mph
Humidity: 85%   Direction: 310°NW
Pressure: 30.2"   Gusts: NA
Location:  38.5593°N, 77.1565°W
Report Text: KNYG 280256Z AUTO 31007KT 10SM CLR 01/M02 A3020 RMK AO2 SLP226 T00061017 51014 FZRANO $
Loading
Personal Weather Stations






























Interactive Weather Map New forecast layout! Learn more

10-Day Weather Forecast

Advertisements
Track Severe Weather on mobile